MUC1158 LOWI-LOWI

Flight info

Callsign MUC1158
Flight time N/A
Altitude 5500
Route VFR
Aircraft C210/L-VGD/A

Departure

Time 2026-05-07 17:30
Airport Innsbruck Airport (LOWI)

Arrival

Time N/A
Airport Innsbruck Airport (LOWI)
Time Latitude Longitude Altitude Speed Heading
2026-05-07 17:21 47.26201 11.34569 1902 ft 0 kts 146°
2026-05-07 17:22 47.26192 11.34585 1900 ft 6 kts 97°
2026-05-07 17:22 47.26202 11.34685 1903 ft 13 kts 81°
2026-05-07 17:22 47.26206 11.34820 1902 ft 2 kts 121°
2026-05-07 17:23 47.26206 11.34821 1902 ft 0 kts 124°
2026-05-07 17:24 47.26206 11.34820 1902 ft 0 kts 124°
2026-05-07 17:28 47.26203 11.34823 1902 ft 4 kts 153°
2026-05-07 17:29 47.26124 11.34837 1902 ft 19 kts 185°
2026-05-07 17:29 47.26089 11.35066 1902 ft 51 kts 81°
2026-05-07 17:29 47.26166 11.35794 1971 ft 84 kts 83°
2026-05-07 17:29 47.26235 11.36697 2283 ft 94 kts 84°
2026-05-07 17:30 47.26425 11.37626 2688 ft 97 kts 59°
2026-05-07 17:30 47.26934 11.38372 2992 ft 106 kts 39°
2026-05-07 17:30 47.27495 11.39079 3379 ft 110 kts 39°
2026-05-07 17:30 47.28144 11.39729 3730 ft 114 kts 33°
2026-05-07 17:31 47.28575 11.40629 4056 ft 111 kts 83°
2026-05-07 17:31 47.28626 11.41705 4457 ft 100 kts 83°
2026-05-07 17:31 47.28699 11.42718 4719 ft 101 kts 83°
2026-05-07 17:31 47.28840 11.43745 4972 ft 104 kts 73°
2026-05-07 17:32 47.29048 11.44764 5238 ft 105 kts 74°
2026-05-07 17:32 47.29249 11.45807 5492 ft 109 kts 73°
2026-05-07 17:32 47.29469 11.46987 5544 ft 130 kts 74°
2026-05-07 17:32 47.29719 11.48330 5544 ft 141 kts 74°
2026-05-07 17:33 47.29984 11.49758 5541 ft 148 kts 74°
2026-05-07 17:33 47.30271 11.51233 5536 ft 150 kts 70°
2026-05-07 17:33 47.30715 11.52660 5534 ft 152 kts 64°
2026-05-07 17:33 47.31171 11.54056 5534 ft 154 kts 64°
2026-05-07 17:34 47.31636 11.55486 5531 ft 155 kts 64°
2026-05-07 17:34 47.32101 11.56918 5531 ft 156 kts 64°
2026-05-07 17:34 47.32570 11.58359 5533 ft 156 kts 64°
2026-05-07 17:34 47.33040 11.59802 5531 ft 156 kts 64°
2026-05-07 17:35 47.33506 11.61241 5528 ft 155 kts 65°
2026-05-07 17:35 47.33925 11.62697 5527 ft 154 kts 67°
2026-05-07 17:35 47.34335 11.64162 5527 ft 155 kts 67°
2026-05-07 17:35 47.34750 11.65636 5527 ft 156 kts 67°
2026-05-07 17:36 47.35166 11.67112 5530 ft 156 kts 67°
2026-05-07 17:36 47.35583 11.68592 5528 ft 157 kts 67°
2026-05-07 17:36 47.36001 11.70072 5509 ft 153 kts 67°
2026-05-07 17:36 47.36536 11.71417 5518 ft 152 kts 57°
2026-05-07 17:37 47.37124 11.72714 5520 ft 151 kts 57°
2026-05-07 17:37 47.37706 11.74001 5517 ft 150 kts 57°
2026-05-07 17:37 47.38279 11.75273 5518 ft 149 kts 57°
2026-05-07 17:37 47.38843 11.76532 5518 ft 149 kts 57°
2026-05-07 17:38 47.39418 11.77816 5520 ft 150 kts 57°
2026-05-07 17:38 47.39997 11.79105 5522 ft 151 kts 57°
2026-05-07 17:38 47.40576 11.80400 5547 ft 154 kts 56°
2026-05-07 17:38 47.41013 11.81845 5504 ft 158 kts 84°
2026-05-07 17:39 47.40634 11.83327 5509 ft 159 kts 134°
2026-05-07 17:39 47.39690 11.84136 5488 ft 155 kts 155°
2026-05-07 17:39 47.38681 11.84684 5521 ft 155 kts 158°
2026-05-07 17:39 47.37656 11.85213 5527 ft 157 kts 157°
2026-05-07 17:40 47.36618 11.85725 5531 ft 157 kts 158°
2026-05-07 17:40 47.35580 11.86236 5530 ft 157 kts 158°
2026-05-07 17:40 47.34524 11.86686 5530 ft 160 kts 163°
2026-05-07 17:40 47.33433 11.87041 5528 ft 161 kts 165°
2026-05-07 17:41 47.32340 11.87417 5532 ft 161 kts 164°
2026-05-07 17:41 47.31250 11.87813 5533 ft 161 kts 163°
2026-05-07 17:41 47.30158 11.88201 5534 ft 161 kts 165°
2026-05-07 17:41 47.29075 11.88592 5536 ft 160 kts 164°
2026-05-07 17:42 47.27993 11.88996 5535 ft 160 kts 164°
2026-05-07 17:42 47.26898 11.89273 5519 ft 161 kts 179°
2026-05-07 17:42 47.25781 11.89098 5526 ft 162 kts 185°
2026-05-07 17:42 47.24658 11.88933 5534 ft 163 kts 184°
2026-05-07 17:43 47.23587 11.88763 5765 ft 151 kts 185°
2026-05-07 17:43 47.22587 11.88577 6015 ft 141 kts 184°
2026-05-07 17:43 47.21639 11.88392 6253 ft 136 kts 196°
2026-05-07 17:43 47.20792 11.87826 6504 ft 132 kts 204°
2026-05-07 17:44 47.19960 11.87284 6742 ft 129 kts 204°
2026-05-07 17:44 47.19147 11.86758 6980 ft 126 kts 204°
2026-05-07 17:44 47.18345 11.86248 7137 ft 125 kts 202°
2026-05-07 17:44 47.17563 11.85694 7383 ft 125 kts 205°
2026-05-07 17:45 47.16783 11.85152 7643 ft 123 kts 204°
2026-05-07 17:45 47.16019 11.84614 7904 ft 120 kts 208°
2026-05-07 17:45 47.15293 11.84042 8164 ft 118 kts 208°
2026-05-07 17:45 47.14572 11.83488 8412 ft 116 kts 208°
2026-05-07 17:46 47.13859 11.82939 8658 ft 115 kts 208°
2026-05-07 17:46 47.13151 11.82394 8908 ft 115 kts 208°
2026-05-07 17:46 47.12447 11.81853 9167 ft 113 kts 208°
2026-05-07 17:46 47.11753 11.81319 9422 ft 112 kts 208°
2026-05-07 17:47 47.11064 11.80790 9677 ft 111 kts 208°
2026-05-07 17:47 47.10407 11.80235 9914 ft 107 kts 218°
2026-05-07 17:47 47.09830 11.79575 10141 ft 103 kts 218°
2026-05-07 17:47 47.09273 11.78951 10352 ft 99 kts 218°
2026-05-07 17:48 47.08719 11.78340 10500 ft 105 kts 218°
2026-05-07 17:48 47.08081 11.77639 10527 ft 124 kts 218°
2026-05-07 17:48 47.07339 11.76830 10529 ft 140 kts 218°
2026-05-07 17:48 47.06535 11.75943 10528 ft 149 kts 218°
2026-05-07 17:49 47.05691 11.75023 10516 ft 153 kts 218°
2026-05-07 17:49 47.04837 11.74097 10513 ft 152 kts 218°
2026-05-07 17:49 47.03995 11.73173 10513 ft 151 kts 218°
2026-05-07 17:49 47.03147 11.72236 10495 ft 153 kts 219°
2026-05-07 17:50 47.02382 11.71139 10494 ft 155 kts 228°
2026-05-07 17:50 47.01677 11.69981 10495 ft 154 kts 230°
2026-05-07 17:50 47.00972 11.68800 10494 ft 155 kts 230°
2026-05-07 17:50 47.00261 11.67616 10498 ft 156 kts 230°
2026-05-07 17:51 46.99545 11.66417 10493 ft 157 kts 230°
2026-05-07 17:51 46.98827 11.65212 10493 ft 156 kts 230°
2026-05-07 17:51 46.98110 11.64023 10494 ft 156 kts 230°
2026-05-07 17:51 46.97402 11.62840 10492 ft 154 kts 232°
2026-05-07 17:52 46.96734 11.61612 10490 ft 154 kts 233°
2026-05-07 17:52 46.96071 11.60380 10481 ft 154 kts 233°
2026-05-07 17:52 46.95410 11.59146 10482 ft 154 kts 233°
2026-05-07 17:52 46.94748 11.57912 10479 ft 154 kts 233°
2026-05-07 17:53 46.94087 11.56683 10483 ft 154 kts 233°
2026-05-07 17:53 46.93421 11.55458 10481 ft 153 kts 233°
2026-05-07 17:53 46.92757 11.54238 10481 ft 153 kts 233°
2026-05-07 17:53 46.92094 11.53010 10483 ft 154 kts 233°
2026-05-07 17:54 46.91261 11.52078 10463 ft 156 kts 197°
2026-05-07 17:54 46.90182 11.51969 10477 ft 156 kts 182°
2026-05-07 17:54 46.89078 11.52145 10333 ft 166 kts 174°
2026-05-07 17:54 46.87913 11.52385 10108 ft 175 kts 174°
2026-05-07 17:55 46.86694 11.52636 9883 ft 178 kts 174°
2026-05-07 17:55 46.85461 11.52884 9635 ft 179 kts 174°
2026-05-07 17:55 46.84230 11.53127 9483 ft 175 kts 174°
2026-05-07 17:55 46.83048 11.53359 9475 ft 168 kts 174°
2026-05-07 17:56 46.81914 11.53586 9471 ft 161 kts 174°
2026-05-07 17:56 46.80817 11.53807 9465 ft 158 kts 174°
2026-05-07 17:56 46.79736 11.54030 9466 ft 156 kts 175°
2026-05-07 17:56 46.78760 11.54630 9463 ft 155 kts 145°
2026-05-07 17:57 46.77916 11.55606 9460 ft 155 kts 144°
2026-05-07 17:57 46.77335 11.56258 9295 ft 163 kts 144°
2026-05-07 17:57 46.76093 11.57657 8971 ft 174 kts 143°
2026-05-07 17:57 46.75124 11.58750 8721 ft 175 kts 144°
2026-05-07 17:58 46.74156 11.59830 8492 ft 176 kts 144°
2026-05-07 17:58 46.73125 11.60611 8445 ft 163 kts 173°
2026-05-07 17:58 46.72030 11.60586 8457 ft 156 kts 184°
2026-05-07 17:58 46.70955 11.60510 8453 ft 155 kts 184°
2026-05-07 17:59 46.69884 11.60431 8449 ft 154 kts 184°
2026-05-07 17:59 46.68826 11.60352 8450 ft 152 kts 184°
2026-05-07 17:59 46.67807 11.60078 8448 ft 148 kts 203°
2026-05-07 17:59 46.66839 11.59475 8289 ft 158 kts 204°
2026-05-07 18:00 46.65817 11.58795 8044 ft 165 kts 208°
2026-05-07 18:00 46.64792 11.58014 7811 ft 168 kts 208°
2026-05-07 18:00 46.63749 11.57217 7574 ft 171 kts 208°
2026-05-07 18:00 46.62695 11.56408 7331 ft 172 kts 208°
2026-05-07 18:01 46.61637 11.55584 7097 ft 173 kts 209°
2026-05-07 18:01 46.60578 11.54756 6849 ft 173 kts 209°
2026-05-07 18:01 46.59522 11.53926 6589 ft 172 kts 208°
2026-05-07 18:01 46.58507 11.53096 6456 ft 161 kts 209°
2026-05-07 18:02 46.56663 11.51557 6435 ft 147 kts 209°
2026-05-07 18:02 46.55795 11.50831 6428 ft 144 kts 209°
2026-05-07 18:02 46.54933 11.50115 6428 ft 142 kts 209°
2026-05-07 18:03 46.54081 11.49404 6431 ft 141 kts 209°
2026-05-07 18:03 46.53231 11.48686 6428 ft 141 kts 209°
2026-05-07 18:03 46.52522 11.47747 6412 ft 140 kts 240°
2026-05-07 18:03 46.52141 11.46457 6423 ft 139 kts 246°
2026-05-07 18:04 46.51767 11.45156 6420 ft 140 kts 246°
2026-05-07 18:04 46.51397 11.43847 6416 ft 140 kts 246°
2026-05-07 18:04 46.51013 11.42515 6284 ft 149 kts 246°
2026-05-07 18:04 46.50602 11.41074 6037 ft 159 kts 246°
2026-05-07 18:05 46.50109 11.39612 5811 ft 163 kts 239°
2026-05-07 18:05 46.49571 11.38142 5581 ft 166 kts 240°
2026-05-07 18:05 46.49033 11.36642 5353 ft 169 kts 240°
2026-05-07 18:05 46.48384 11.35237 5104 ft 169 kts 221°
2026-05-07 18:06 46.47334 11.34482 4862 ft 170 kts 203°
2026-05-07 18:06 46.46242 11.33792 4614 ft 172 kts 204°
2026-05-07 18:06 46.45146 11.33097 4429 ft 169 kts 204°
2026-05-07 18:06 46.44099 11.32436 4423 ft 160 kts 204°
2026-05-07 18:07 46.43094 11.31812 4417 ft 155 kts 202°
2026-05-07 18:07 46.42104 11.31242 4419 ft 152 kts 201°
2026-05-07 18:07 46.41126 11.30670 4416 ft 151 kts 202°
2026-05-07 18:07 46.40175 11.30106 4511 ft 148 kts 202°
2026-05-07 18:08 46.39226 11.29535 4511 ft 147 kts 202°
2026-05-07 18:08 46.38286 11.28968 4508 ft 146 kts 202°
2026-05-07 18:08 46.37348 11.28407 4506 ft 145 kts 201°
2026-05-07 18:08 46.36416 11.27847 4513 ft 145 kts 202°
2026-05-07 18:09 46.35474 11.27283 4513 ft 147 kts 202°
2026-05-07 18:09 46.34526 11.26718 4513 ft 147 kts 202°
2026-05-07 18:09 46.33581 11.26150 4514 ft 147 kts 202°
2026-05-07 18:09 46.32639 11.25585 4514 ft 147 kts 202°
2026-05-07 18:10 46.31698 11.25019 4516 ft 146 kts 202°